createdAt,value
2023-01-19T00:02:22.098Z,12.10
2023-01-19T00:06:07.970Z,10.07
2023-01-19T00:09:49.926Z,10.82
2023-01-19T00:13:31.968Z,12.45
2023-01-19T00:17:13.976Z,9.67
2023-01-19T00:20:56.015Z,9.40
2023-01-19T00:24:37.964Z,8.77
2023-01-19T00:28:20.079Z,9.53
2023-01-19T00:32:03.786Z,8.20
2023-01-19T00:35:45.792Z,9.88
2023-01-19T00:39:27.713Z,9.35
2023-01-19T00:43:09.760Z,9.43
2023-01-19T00:46:51.740Z,9.88
2023-01-19T00:50:34.241Z,9.07
2023-01-19T00:54:16.220Z,8.93
2023-01-19T00:57:58.837Z,9.48
2023-01-19T01:01:45.567Z,10.30
2023-01-19T01:05:28.502Z,8.63
2023-01-19T01:09:13.651Z,10.82
2023-01-19T01:12:58.674Z,10.60
2023-01-19T01:16:41.867Z,9.35
2023-01-19T01:20:28.143Z,8.30
2023-01-19T01:24:10.578Z,7.78
2023-01-19T01:27:53.456Z,8.20
2023-01-19T01:31:35.586Z,7.33
2023-01-19T01:35:17.782Z,7.72
2023-01-19T01:39:00.387Z,8.25
2023-01-19T01:42:43.088Z,10.93
2023-01-19T01:46:27.735Z,9.43
2023-01-19T01:50:20.785Z,12.10
2023-01-19T01:54:02.703Z,9.35
2023-01-19T01:57:50.331Z,12.17
2023-01-19T02:01:51.028Z,10.30
2023-01-19T02:05:37.522Z,9.60
2023-01-19T02:09:38.371Z,8.53
2023-01-19T02:13:21.361Z,14.82
2023-01-19T02:17:04.188Z,10.90
2023-01-19T02:20:58.025Z,10.30
2023-01-19T02:24:40.189Z,9.85
2023-01-19T02:28:22.171Z,11.77
2023-01-19T02:32:05.880Z,8.55
2023-01-19T02:35:51.217Z,8.50
2023-01-19T02:39:42.956Z,11.05
2023-01-19T02:43:26.325Z,9.32
2023-01-19T02:47:08.317Z,13.33
2023-01-19T02:51:04.290Z,8.73
2023-01-19T02:55:08.716Z,8.55
2023-01-19T02:59:13.504Z,9.43
2023-01-19T03:03:27.131Z,11.02
2023-01-19T03:07:18.398Z,13.25
2023-01-19T03:11:13.987Z,12.75
2023-01-19T03:15:01.260Z,13.03
2023-01-19T03:18:47.144Z,12.90
2023-01-19T03:22:30.332Z,16.23
2023-01-19T03:26:16.616Z,14.10
2023-01-19T03:30:07.945Z,15.98
2023-01-19T03:33:54.501Z,18.38
2023-01-19T03:37:42.683Z,14.07
2023-01-19T03:41:26.068Z,15.50
2023-01-19T03:45:09.271Z,13.82
2023-01-19T03:48:51.911Z,18.02
2023-01-19T03:52:33.922Z,13.60
2023-01-19T03:56:24.372Z,19.90
2023-01-19T04:00:06.975Z,14.85
2023-01-19T04:03:50.586Z,14.07
2023-01-19T04:07:33.164Z,13.00
2023-01-19T04:11:15.568Z,14.25
2023-01-19T04:14:57.469Z,15.00
2023-01-19T04:18:40.893Z,14.07
2023-01-19T04:22:22.862Z,14.25
2023-01-19T04:26:07.099Z,14.70
2023-01-19T04:29:49.059Z,14.93
2023-01-19T04:33:31.320Z,12.48
2023-01-19T04:37:13.447Z,12.13
2023-01-19T04:40:55.561Z,13.60
2023-01-19T04:44:37.557Z,13.27
2023-01-19T04:48:19.939Z,12.55
2023-01-19T04:52:02.069Z,14.60
2023-01-19T04:55:44.321Z,13.70
2023-01-19T04:59:26.327Z,12.68
2023-01-19T05:03:08.348Z,13.88
2023-01-19T05:06:50.544Z,14.50
2023-01-19T05:10:32.435Z,15.40
2023-01-19T05:14:14.754Z,12.48
2023-01-19T05:17:58.140Z,14.73
2023-01-19T05:21:40.085Z,13.00
2023-01-19T05:25:22.053Z,12.20
2023-01-19T05:29:04.014Z,13.90
2023-01-19T05:32:45.988Z,11.82
2023-01-19T05:36:28.116Z,14.15
2023-01-19T05:40:10.967Z,11.85
2023-01-19T05:43:52.945Z,13.20
2023-01-19T05:47:34.848Z,13.00
2023-01-19T05:51:17.141Z,13.10
2023-01-19T05:54:59.264Z,11.67
2023-01-19T05:58:41.200Z,15.73
2023-01-19T06:02:28.744Z,17.42
2023-01-19T06:06:11.698Z,15.03
2023-01-19T06:09:53.592Z,12.35
2023-01-19T06:13:35.576Z,12.80
2023-01-19T06:17:17.549Z,11.88
2023-01-19T06:20:59.569Z,13.67
2023-01-19T06:24:41.542Z,11.07
2023-01-19T06:28:23.748Z,15.48
2023-01-19T06:32:06.146Z,14.93
2023-01-19T06:35:49.904Z,12.40
2023-01-19T06:39:31.828Z,14.23
2023-01-19T06:43:13.796Z,14.00
2023-01-19T06:47:15.416Z,13.60
2023-01-19T06:50:59.531Z,12.95
2023-01-19T06:54:43.492Z,14.65
2023-01-19T06:58:31.011Z,12.27
2023-01-19T07:02:27.257Z,12.18
2023-01-19T07:06:10.382Z,15.57
2023-01-19T07:09:53.995Z,12.10
2023-01-19T07:13:37.678Z,13.57
2023-01-19T07:17:19.760Z,12.75
2023-01-19T07:21:02.345Z,13.27
2023-01-19T07:24:44.425Z,16.35
2023-01-19T07:28:26.781Z,15.30
2023-01-19T07:32:09.247Z,11.95
2023-01-19T07:35:52.558Z,19.47
2023-01-19T07:39:36.721Z,13.05
2023-01-19T07:43:18.825Z,12.77
2023-01-19T07:47:01.403Z,16.53
2023-01-19T07:50:43.374Z,13.48
2023-01-19T07:54:25.486Z,13.73
2023-01-19T07:58:07.560Z,16.33
2023-01-19T08:01:49.537Z,15.30
2023-01-19T08:05:33.494Z,15.18
2023-01-19T08:09:15.392Z,20.00
2023-01-19T08:12:58.654Z,15.10
2023-01-19T08:16:40.861Z,14.43
2023-01-19T08:20:23.415Z,18.42
2023-01-19T08:24:05.694Z,15.70
2023-01-19T08:27:48.240Z,15.82
2023-01-19T08:31:30.658Z,15.45
2023-01-19T08:35:12.637Z,16.40
2023-01-19T08:38:54.765Z,20.13
2023-01-19T08:42:36.792Z,18.02
2023-01-19T08:46:21.349Z,18.48
2023-01-19T08:50:03.385Z,14.90
2023-01-19T08:54:18.545Z,14.00
2023-01-19T08:58:02.199Z,13.90
2023-01-19T09:05:49.151Z,14.23
2023-01-19T09:10:02.580Z,14.80
2023-01-19T09:13:44.745Z,14.73
2023-01-19T09:21:34.344Z,14.45
2023-01-19T09:29:30.238Z,12.00
2023-01-19T09:37:29.151Z,13.65
2023-01-19T09:46:03.490Z,12.57
2023-01-19T09:49:52.769Z,14.05
2023-01-19T10:03:05.991Z,11.07
2023-01-19T10:07:28.630Z,10.60
2023-01-19T10:21:04.645Z,12.27
2023-01-19T10:30:00.475Z,9.95
2023-01-19T10:34:30.650Z,9.13
2023-01-19T10:39:00.668Z,12.63
2023-01-19T10:43:31.215Z,10.68
2023-01-19T10:48:02.708Z,9.67
2023-01-19T10:52:32.856Z,9.57
2023-01-19T10:57:02.154Z,10.40
2023-01-19T11:01:32.972Z,8.63
2023-01-19T11:09:30.386Z,10.27
2023-01-19T11:13:55.342Z,10.98
2023-01-19T11:18:26.234Z,9.03
2023-01-19T11:27:28.765Z,11.52
2023-01-19T11:31:57.881Z,7.73
2023-01-19T11:58:00.329Z,11.95
2023-01-19T12:02:24.055Z,15.50
2023-01-19T12:29:24.933Z,11.50
2023-01-19T12:33:57.384Z,8.70
2023-01-19T12:42:21.285Z,12.55
2023-01-19T12:46:19.419Z,10.80
2023-01-19T12:55:18.517Z,9.38
2023-01-19T13:17:52.163Z,7.55
2023-01-19T13:30:22.223Z,5.40
2023-01-19T13:34:46.377Z,8.40
2023-01-19T13:42:48.541Z,8.43
2023-01-19T13:59:31.021Z,5.75
2023-01-19T14:08:31.417Z,13.53
2023-01-19T14:35:35.375Z,8.80
2023-01-19T14:49:04.916Z,5.20
2023-01-19T14:57:00.249Z,5.93
2023-01-19T15:04:59.023Z,4.55
2023-01-19T15:17:46.792Z,6.53
2023-01-19T15:21:48.732Z,7.47
2023-01-19T15:26:15.982Z,4.95
2023-01-19T15:35:15.912Z,5.90
2023-01-19T15:44:17.329Z,8.05
2023-01-19T15:57:47.877Z,5.45
2023-01-19T16:02:17.700Z,4.70
2023-01-19T16:06:47.840Z,9.73
2023-01-19T16:14:49.958Z,8.38
2023-01-19T16:27:41.495Z,11.40
2023-01-19T16:31:23.882Z,9.55
2023-01-19T16:35:06.440Z,10.20
2023-01-19T16:38:56.383Z,11.48
2023-01-19T16:42:39.875Z,12.18
2023-01-19T16:47:09.023Z,9.20
2023-01-19T16:51:02.842Z,17.40
2023-01-19T16:54:44.898Z,13.45
2023-01-19T16:58:26.825Z,14.33
2023-01-19T17:02:14.205Z,16.50
2023-01-19T17:05:56.272Z,13.68
2023-01-19T17:09:38.352Z,12.27
2023-01-19T17:13:20.344Z,8.87
2023-01-19T17:17:02.400Z,11.65
2023-01-19T17:20:44.400Z,9.23
2023-01-19T17:24:26.354Z,8.73
2023-01-19T17:28:08.499Z,13.15
2023-01-19T17:31:51.717Z,11.05
2023-01-19T17:35:34.937Z,14.13
2023-01-19T17:39:18.608Z,15.43
2023-01-19T17:43:00.708Z,16.33
2023-01-19T17:46:42.714Z,15.73
2023-01-19T17:50:24.690Z,16.43
2023-01-19T17:54:06.764Z,11.85
2023-01-19T17:57:48.730Z,12.52
2023-01-19T18:01:32.618Z,13.37
2023-01-19T18:05:14.896Z,12.57
2023-01-19T18:08:58.832Z,12.32
2023-01-19T18:12:40.843Z,9.77
2023-01-19T18:16:25.602Z,9.80
2023-01-19T18:20:08.319Z,10.52
2023-01-19T18:23:51.014Z,13.90
2023-01-19T18:27:33.057Z,20.03
2023-01-19T18:31:17.284Z,17.77
2023-01-19T18:35:03.054Z,31.92
2023-01-19T18:38:45.231Z,24.43
2023-01-19T18:42:27.120Z,24.00
2023-01-19T18:46:09.955Z,25.05
2023-01-19T18:49:51.989Z,24.53
2023-01-19T18:53:33.962Z,21.70
2023-01-19T18:57:17.987Z,22.38
2023-01-19T19:01:01.202Z,26.60
2023-01-19T19:04:43.288Z,17.07
2023-01-19T19:08:25.259Z,15.80
2023-01-19T19:12:07.273Z,15.70
2023-01-19T19:15:49.357Z,19.83
2023-01-19T19:19:31.385Z,18.33
2023-01-19T19:23:13.481Z,17.42
2023-01-19T19:26:55.453Z,16.07
2023-01-19T19:30:39.088Z,17.10
2023-01-19T19:34:21.243Z,13.77
2023-01-19T19:38:03.515Z,15.50
2023-01-19T19:41:45.573Z,11.83
2023-01-19T19:45:27.535Z,10.18
2023-01-19T19:49:09.478Z,10.02
2023-01-19T19:52:51.364Z,10.33
2023-01-19T19:56:34.438Z,11.40
2023-01-19T20:00:16.813Z,11.30
2023-01-19T20:04:04.159Z,12.20
2023-01-19T20:07:49.220Z,18.23
2023-01-19T20:11:31.161Z,13.80
2023-01-19T20:15:13.121Z,15.43
2023-01-19T20:18:55.295Z,17.97
2023-01-19T20:22:37.317Z,13.05
2023-01-19T20:26:23.203Z,18.75
2023-01-19T20:30:07.332Z,15.17
2023-01-19T20:33:51.057Z,13.60
2023-01-19T20:37:33.319Z,20.23
2023-01-19T20:41:15.410Z,25.70
2023-01-19T20:44:57.308Z,24.70
2023-01-19T20:48:39.755Z,20.05
2023-01-19T20:52:22.605Z,25.98
2023-01-19T20:56:11.396Z,16.10
2023-01-19T20:59:53.332Z,15.95
2023-01-19T21:03:36.337Z,20.50
2023-01-19T21:07:18.265Z,22.67
2023-01-19T21:11:00.484Z,22.98
2023-01-19T21:14:43.914Z,21.58
2023-01-19T21:18:28.040Z,22.93
2023-01-19T21:22:09.952Z,20.42
2023-01-19T21:25:57.721Z,16.88
2023-01-19T21:29:40.869Z,19.88
2023-01-19T21:33:23.181Z,16.30
2023-01-19T21:37:05.328Z,15.15
2023-01-19T21:40:47.390Z,17.23
2023-01-19T21:44:29.312Z,16.20
2023-01-19T21:48:11.370Z,16.17
2023-01-19T21:51:53.400Z,15.25
2023-01-19T21:55:35.774Z,16.00
2023-01-19T21:59:20.271Z,15.32
2023-01-19T22:03:04.643Z,20.92
2023-01-19T22:06:47.109Z,16.67
2023-01-19T22:10:29.076Z,18.93
2023-01-19T22:14:11.599Z,18.73
2023-01-19T22:17:53.584Z,18.27
2023-01-19T22:21:35.991Z,14.13
2023-01-19T22:25:18.061Z,11.20
2023-01-19T22:29:01.813Z,12.35
2023-01-19T22:32:43.706Z,14.37
2023-01-19T22:36:28.334Z,14.27
2023-01-19T22:40:11.103Z,12.25
2023-01-19T22:43:55.372Z,11.18
2023-01-19T22:47:37.370Z,11.43
2023-01-19T22:51:20.298Z,8.43
2023-01-19T22:55:02.237Z,9.95
2023-01-19T22:58:45.361Z,10.80
2023-01-19T23:02:27.904Z,9.57
2023-01-19T23:06:12.808Z,10.60
2023-01-19T23:09:54.738Z,9.23
2023-01-19T23:13:36.880Z,11.18
2023-01-19T23:17:18.869Z,10.77
2023-01-19T23:21:05.870Z,10.90
2023-01-19T23:24:47.824Z,12.03
2023-01-19T23:28:30.536Z,14.82
2023-01-19T23:32:12.476Z,13.90
2023-01-19T23:35:57.366Z,10.70
2023-01-19T23:39:39.349Z,13.77
2023-01-19T23:43:21.297Z,19.63
2023-01-19T23:47:03.383Z,15.00
2023-01-19T23:50:45.263Z,10.95
2023-01-19T23:54:27.270Z,14.35
2023-01-19T23:58:09.512Z,11.95
